createdAt,value
2019-05-20T00:02:28.643Z,99.90
2019-05-20T00:07:32.487Z,99.90
2019-05-20T00:12:36.163Z,99.90
2019-05-20T00:17:39.831Z,99.90
2019-05-20T00:22:43.535Z,99.90
2019-05-20T00:27:51.387Z,99.90
2019-05-20T00:32:55.128Z,99.90
2019-05-20T00:37:58.732Z,99.90
2019-05-20T00:43:02.323Z,99.90
2019-05-20T00:48:05.927Z,99.90
2019-05-20T00:53:09.756Z,99.90
2019-05-20T00:58:13.477Z,99.90
2019-05-20T01:03:17.470Z,99.90
2019-05-20T01:08:21.470Z,99.90
2019-05-20T01:13:25.130Z,99.90
2019-05-20T01:18:29.133Z,99.90
2019-05-20T01:23:32.812Z,99.90
2019-05-20T01:28:37.544Z,99.90
2019-05-20T01:33:41.151Z,99.90
2019-05-20T01:38:45.071Z,99.90
2019-05-20T01:43:48.736Z,99.90
2019-05-20T01:48:52.403Z,99.90
2019-05-20T01:53:57.648Z,99.90
2019-05-20T01:59:01.576Z,99.90
2019-05-20T02:04:05.306Z,99.90
2019-05-20T02:09:09.361Z,99.90
2019-05-20T02:14:17.342Z,99.90
2019-05-20T02:19:21.088Z,99.90
2019-05-20T02:24:25.117Z,99.90
2019-05-20T02:29:28.725Z,99.90
2019-05-20T02:34:32.392Z,99.90
2019-05-20T02:39:36.140Z,99.90
2019-05-20T02:44:40.211Z,99.90
2019-05-20T02:49:43.811Z,99.90
2019-05-20T02:54:49.047Z,99.90
2019-05-20T02:59:54.168Z,99.90
2019-05-20T03:04:58.095Z,99.90
2019-05-20T03:10:01.757Z,99.90
2019-05-20T03:15:06.843Z,99.90
2019-05-20T03:20:10.946Z,99.90
2019-05-20T03:25:14.609Z,99.90
2019-05-20T03:30:18.868Z,99.90
2019-05-20T03:35:22.614Z,99.90
2019-05-20T03:40:26.366Z,99.90
2019-05-20T03:45:30.385Z,99.90
2019-05-20T03:50:34.430Z,99.90
2019-05-20T03:55:38.085Z,99.90
2019-05-20T04:00:44.562Z,99.90
2019-05-20T04:05:48.414Z,99.90
2019-05-20T04:10:52.371Z,99.90
2019-05-20T04:15:56.363Z,99.90
2019-05-20T04:21:00.352Z,99.90
2019-05-20T04:26:04.411Z,99.90
2019-05-20T04:31:09.801Z,99.90
2019-05-20T04:36:13.778Z,99.90
2019-05-20T04:41:17.839Z,99.90
2019-05-20T04:46:21.576Z,99.90
2019-05-20T04:51:25.265Z,99.90
2019-05-20T04:56:29.604Z,99.90
2019-05-20T05:01:33.274Z,99.90
2019-05-20T05:06:38.960Z,99.90
2019-05-20T05:11:42.425Z,99.90
2019-05-20T05:16:46.219Z,99.90
2019-05-20T05:21:49.998Z,99.90
2019-05-20T05:26:53.748Z,99.90
2019-05-20T05:31:58.040Z,99.90
2019-05-20T05:37:02.144Z,99.90
2019-05-20T05:42:06.229Z,99.90
2019-05-20T05:47:09.832Z,99.90
2019-05-20T05:52:13.578Z,99.90
2019-05-20T05:57:17.272Z,99.90
2019-05-20T06:02:20.939Z,99.90
2019-05-20T06:07:29.606Z,99.90
2019-05-20T06:12:30.803Z,99.90
2019-05-20T06:17:34.878Z,99.90
2019-05-20T06:22:38.924Z,99.90
2019-05-20T06:27:42.682Z,99.90
2019-05-20T06:32:47.494Z,99.90
2019-05-20T06:37:52.852Z,99.90
2019-05-20T06:42:58.359Z,99.90
2019-05-20T06:48:02.117Z,99.90
2019-05-20T06:53:06.199Z,99.90
2019-05-20T06:58:10.272Z,99.90
2019-05-20T07:03:14.099Z,99.90
2019-05-20T07:08:18.141Z,99.90
2019-05-20T07:13:21.910Z,99.90
2019-05-20T07:18:27.546Z,99.90
2019-05-20T07:23:32.680Z,99.90
2019-05-20T07:28:36.364Z,99.90
2019-05-20T07:33:40.287Z,99.90
2019-05-20T07:38:44.042Z,99.90
2019-05-20T07:43:50.514Z,99.90
2019-05-20T07:48:54.251Z,99.90
2019-05-20T07:53:58.107Z,99.90
2019-05-20T07:59:05.018Z,99.90
2019-05-20T08:04:08.746Z,99.90
2019-05-20T08:09:12.495Z,99.90
2019-05-20T08:14:16.243Z,99.90
2019-05-20T08:19:21.815Z,99.90
2019-05-20T08:24:25.614Z,99.90
2019-05-20T08:29:29.361Z,99.90
2019-05-20T08:34:33.608Z,99.90
2019-05-20T08:39:37.515Z,99.90
2019-05-20T08:44:41.308Z,99.90
2019-05-20T08:49:45.138Z,99.90
2019-05-20T08:54:48.956Z,99.90
2019-05-20T08:59:52.558Z,99.90
2019-05-20T09:04:56.647Z,99.90
2019-05-20T09:10:00.478Z,99.90
2019-05-20T09:15:06.703Z,99.90
2019-05-20T09:20:13.947Z,99.90
2019-05-20T09:25:20.647Z,99.90
2019-05-20T09:30:24.794Z,99.90
2019-05-20T09:35:28.596Z,99.90
2019-05-20T09:40:39.094Z,99.90
2019-05-20T09:45:42.849Z,99.90
2019-05-20T09:50:46.532Z,99.90
2019-05-20T09:55:50.296Z,99.90
2019-05-20T10:00:54.047Z,99.90
2019-05-20T10:06:01.924Z,99.90
2019-05-20T10:11:05.690Z,99.90
2019-05-20T10:16:11.167Z,99.90
2019-05-20T10:21:14.947Z,99.90
2019-05-20T10:26:18.778Z,99.90
2019-05-20T10:31:22.897Z,99.90
2019-05-20T10:36:27.265Z,99.90
2019-05-20T10:41:32.623Z,99.80
2019-05-20T10:46:36.294Z,99.70
2019-05-20T10:51:40.031Z,99.40
2019-05-20T10:56:43.737Z,99.60
2019-05-20T11:01:47.466Z,99.90
2019-05-20T11:06:51.275Z,99.90
2019-05-20T11:11:54.975Z,99.90
2019-05-20T11:16:58.689Z,99.90
2019-05-20T11:22:02.849Z,99.70
2019-05-20T11:27:06.587Z,99.00
2019-05-20T11:32:10.329Z,99.10
2019-05-20T11:37:14.521Z,99.00
2019-05-20T11:42:18.552Z,98.70
2019-05-20T11:47:22.623Z,98.60
2019-05-20T11:52:26.368Z,97.70
2019-05-20T11:57:30.474Z,98.50
2019-05-20T12:02:34.463Z,98.10
2019-05-20T12:07:38.251Z,98.20
2019-05-20T12:12:41.826Z,98.00
2019-05-20T12:17:45.503Z,96.70
2019-05-20T12:22:49.249Z,95.80
2019-05-20T12:27:53.017Z,95.30
2019-05-20T12:33:17.255Z,95.90
2019-05-20T12:38:02.492Z,94.90
2019-05-20T12:43:06.224Z,94.20
2019-05-20T12:48:09.943Z,95.10
2019-05-20T12:53:13.998Z,94.60
2019-05-20T12:58:17.769Z,94.30
2019-05-20T13:03:22.096Z,93.70
2019-05-20T13:08:26.338Z,93.30
2019-05-20T13:13:31.422Z,92.90
2019-05-20T13:18:35.495Z,92.30
2019-05-20T13:23:39.241Z,92.70
2019-05-20T13:28:42.863Z,92.30
2019-05-20T13:33:46.958Z,93.80
2019-05-20T13:38:50.713Z,93.90
2019-05-20T13:43:57.343Z,95.60
2019-05-20T13:49:01.035Z,98.30
2019-05-20T13:54:05.171Z,99.60
2019-05-20T13:59:08.900Z,99.90
2019-05-20T14:04:12.613Z,99.90
2019-05-20T14:09:16.373Z,99.90
2019-05-20T14:14:20.245Z,99.90
2019-05-20T14:19:26.148Z,99.90
2019-05-20T14:24:29.538Z,99.90
2019-05-20T14:29:33.576Z,99.70
2019-05-20T14:34:37.257Z,99.50
2019-05-20T14:39:41.039Z,99.70
2019-05-20T14:44:47.686Z,99.90
2019-05-20T14:49:51.781Z,99.90
2019-05-20T14:54:55.588Z,99.90
2019-05-20T14:59:59.236Z,99.90
2019-05-20T15:05:03.192Z,99.90
2019-05-20T15:10:08.488Z,99.90
2019-05-20T15:15:12.784Z,99.90
2019-05-20T15:20:19.696Z,99.90
2019-05-20T15:25:23.382Z,99.90
2019-05-20T15:30:27.090Z,99.90
2019-05-20T15:35:30.859Z,99.90
2019-05-20T15:40:34.606Z,99.90
2019-05-20T15:45:38.690Z,99.90
2019-05-20T15:50:43.760Z,99.90
2019-05-20T15:55:48.444Z,99.90
2019-05-20T16:00:52.043Z,99.90
2019-05-20T16:05:59.629Z,99.90
2019-05-20T16:11:01.329Z,99.90
2019-05-20T16:16:05.161Z,99.90
2019-05-20T16:21:08.924Z,99.90
2019-05-20T16:26:12.820Z,99.90
2019-05-20T16:31:17.117Z,99.90
2019-05-20T16:36:20.863Z,99.90
2019-05-20T16:41:29.194Z,99.90
2019-05-20T16:46:32.942Z,98.90
2019-05-20T16:51:36.711Z,98.70
2019-05-20T16:56:40.543Z,99.60
2019-05-20T17:01:46.607Z,99.20
2019-05-20T17:06:51.533Z,99.90
2019-05-20T17:11:55.298Z,99.90
2019-05-20T17:16:59.210Z,99.90
2019-05-20T17:22:02.984Z,99.90
2019-05-20T17:27:07.051Z,99.90
2019-05-20T17:32:11.434Z,99.90
2019-05-20T17:37:15.492Z,99.90
2019-05-20T17:42:19.356Z,99.40
2019-05-20T17:47:55.538Z,99.10
2019-05-20T17:52:59.546Z,99.10
2019-05-20T17:58:08.640Z,98.80
2019-05-20T18:03:09.699Z,99.80
2019-05-20T18:08:13.386Z,98.10
2019-05-20T18:13:17.209Z,97.40
2019-05-20T18:18:22.675Z,97.60
2019-05-20T18:23:27.987Z,97.30
2019-05-20T18:28:31.663Z,98.10
2019-05-20T18:33:35.507Z,97.30
2019-05-20T18:38:39.440Z,97.30
2019-05-20T18:43:44.224Z,97.60
2019-05-20T18:48:48.203Z,97.50
2019-05-20T18:53:53.044Z,97.00
2019-05-20T18:58:58.249Z,96.80
2019-05-20T19:04:02.307Z,97.00
2019-05-20T19:09:07.255Z,97.10
2019-05-20T19:14:11.020Z,96.90
2019-05-20T19:19:14.827Z,96.20
2019-05-20T19:24:18.426Z,97.30
2019-05-20T19:29:22.122Z,96.40
2019-05-20T19:34:27.832Z,96.40
2019-05-20T19:39:31.101Z,96.50
2019-05-20T19:44:34.792Z,96.40
2019-05-20T19:49:42.273Z,97.10
2019-05-20T19:54:44.454Z,97.20
2019-05-20T19:59:48.270Z,97.90
2019-05-20T20:04:52.712Z,98.90
2019-05-20T20:09:56.468Z,99.40
2019-05-20T20:15:00.905Z,99.60
2019-05-20T20:20:05.500Z,99.80
2019-05-20T20:25:09.235Z,99.80
2019-05-20T20:30:13.182Z,99.90
2019-05-20T20:35:20.851Z,99.90
2019-05-20T20:40:24.492Z,99.90
2019-05-20T20:45:28.277Z,99.90
2019-05-20T20:50:32.267Z,99.90
2019-05-20T20:55:36.917Z,99.90
2019-05-20T21:00:40.600Z,99.90
2019-05-20T21:05:44.305Z,99.90
2019-05-20T21:10:49.407Z,99.90
2019-05-20T21:15:53.120Z,99.90
2019-05-20T21:20:56.865Z,99.90
2019-05-20T21:26:00.863Z,99.90
2019-05-20T21:31:06.496Z,99.90
2019-05-20T21:36:10.245Z,99.90
2019-05-20T21:41:14.003Z,99.90
2019-05-20T21:46:27.824Z,99.90
2019-05-20T21:51:23.012Z,99.90
2019-05-20T21:56:26.692Z,99.90
2019-05-20T22:01:30.843Z,99.90
2019-05-20T22:06:34.826Z,99.90
2019-05-20T22:11:38.471Z,99.90
2019-05-20T22:16:42.074Z,99.90
2019-05-20T22:21:51.200Z,99.90
2019-05-20T22:26:54.805Z,99.90
2019-05-20T22:31:58.781Z,99.90
2019-05-20T22:37:02.389Z,99.90
2019-05-20T22:42:06.056Z,99.90
2019-05-20T22:47:13.168Z,99.90
2019-05-20T22:52:16.778Z,99.90
2019-05-20T22:57:20.381Z,99.90
2019-05-20T23:02:23.996Z,99.90
2019-05-20T23:07:27.677Z,99.90
2019-05-20T23:12:31.611Z,99.90
2019-05-20T23:17:35.273Z,99.90
2019-05-20T23:22:38.888Z,99.90
2019-05-20T23:27:42.883Z,99.90
2019-05-20T23:32:46.470Z,99.90
2019-05-20T23:37:50.149Z,99.90
2019-05-20T23:42:53.829Z,99.90
2019-05-20T23:47:59.609Z,99.90
2019-05-20T23:53:03.601Z,99.90
2019-05-20T23:58:13.735Z,99.90
